Portada
METAR-TAF:

METAR-TAF

Aeropuertos :

Dax, Francia

Seyresse

latitud: 43-41N, longitud: 001-04W, altitud: 32 m

Observación

El informe se hizo hace 10 minutos, a las 16:30 UTC
Viento 4 kt del este-sureste, variando entre este y sureste
Temperatura 31°C
Humedad 49%
Presión 1012 hPa
Visibilidad 10 km o más

METAR: LFBY 281630Z AUTO 11004KT 080V140 9999 // ////// 31/19 Q1012

Hora: 18:40 (16:40 UTC)


TAF: falta

Observaciones y pronósticos meteorológicos de más de 4000 aeropuertos (mensajes METAR y TAF).

Los puntos amarillos y rojos representan las estaciones disponibles.

Ponga el ratón en el punto deseado para ver el nombre de la estación.

Haga clic para ver las observaciones y los pronósticos meteorológicos.

Para cambiar el mapa : haga clic en los botones verdes con una cruz de color negro para hacer un zoom, en el botón verde con un guión para alejar o en las flechas verdes para mapas adyacentes.


METAR-TAF: